KSZL Airport (Whiteman Afb) Information

FAA: SZL - ICAO: KSZL

KSZL Airport Location

State Missouri
County Johnson
City Knob Noster
KSZL Airport is 2 miles south of Knob Noster, MO.
Latitude 38-43-49.1000N
Longitude 093-32-52.3100W
Elevation 871ft

KSZL Airport METARs

METAR KSZL 071955Z 04004KT 10SM OVC022 10/04 A3023 RMK AO2A CIG 021 RWY19 SLP243 T00980035 $
Altimeter 30.23"
Temperature 9.8°C (49.6°F)
Wind 40° at 4KT
Clouds overcast at 2,200ft
Visibility 10.0mi
Time observed: 2022-12-07T19:55:00Z

KSZL Airport Details

Status Operational
Activation N/A
Ownership Military - Air Force
Usage Private
Chart KANSAS CITY
ATC on-site Yes
Beacon schedule sunset-sunrise
Beacon color clear green

KSZL Airport Contacts

Owner USAF
Owner address WHITEMAN AFB, SEDALIA, MO 65301
Owner phone N/A
Manager DIRECTOR OF PLANT OPNS
Manager address 2316 EAST MEYER BLVD, KANSAS CITY, MO 64132
Manager phone 816-276-4177

KSZL Airport (Whiteman Afb) Radio Frequencies

KSZL (Airport) Radio Frequencies

UNICOM N/A
Common traffic advisory frequency (CTAF) N/A